sensor_id;sensor_type;location;lat;lon;timestamp;P1;durP1;ratioP1;P2;durP2;ratioP2
78818;SDS011;68166;55.090;37.460;2023-04-25T00:01:37;9.65;;;4.78;;
78818;SDS011;68166;55.090;37.460;2023-04-25T00:06:39;15.48;;;5.80;;
78818;SDS011;68166;55.090;37.460;2023-04-25T00:11:41;14.13;;;4.53;;
78818;SDS011;68166;55.090;37.460;2023-04-25T00:16:43;6.75;;;3.45;;
78818;SDS011;68166;55.090;37.460;2023-04-25T00:21:45;9.90;;;3.70;;
78818;SDS011;68166;55.090;37.460;2023-04-25T00:26:47;6.68;;;3.47;;
78818;SDS011;68166;55.090;37.460;2023-04-25T00:31:49;5.35;;;2.78;;
78818;SDS011;68166;55.090;37.460;2023-04-25T00:36:51;3.83;;;2.30;;
78818;SDS011;68166;55.090;37.460;2023-04-25T00:41:54;4.97;;;3.08;;
78818;SDS011;68166;55.090;37.460;2023-04-25T00:46:56;5.03;;;2.75;;
78818;SDS011;68166;55.090;37.460;2023-04-25T00:51:58;6.45;;;2.35;;
78818;SDS011;68166;55.090;37.460;2023-04-25T00:57:00;12.30;;;3.42;;
78818;SDS011;68166;55.090;37.460;2023-04-25T01:02:02;6.40;;;3.47;;
78818;SDS011;68166;55.090;37.460;2023-04-25T01:07:04;6.80;;;3.35;;
78818;SDS011;68166;55.090;37.460;2023-04-25T01:12:06;6.93;;;3.65;;
78818;SDS011;68166;55.090;37.460;2023-04-25T01:17:09;6.88;;;2.70;;
78818;SDS011;68166;55.090;37.460;2023-04-25T01:22:11;9.35;;;4.68;;
78818;SDS011;68166;55.090;37.460;2023-04-25T01:27:13;5.03;;;2.95;;
78818;SDS011;68166;55.090;37.460;2023-04-25T01:32:16;6.72;;;2.70;;
78818;SDS011;68166;55.090;37.460;2023-04-25T01:37:18;10.23;;;3.00;;
78818;SDS011;68166;55.090;37.460;2023-04-25T01:42:21;5.25;;;2.90;;
78818;SDS011;68166;55.090;37.460;2023-04-25T01:47:22;9.50;;;3.40;;
78818;SDS011;68166;55.090;37.460;2023-04-25T01:52:24;4.95;;;2.58;;
78818;SDS011;68166;55.090;37.460;2023-04-25T01:57:26;8.88;;;2.80;;
78818;SDS011;68166;55.090;37.460;2023-04-25T02:02:30;2.40;;;1.58;;
78818;SDS011;68166;55.090;37.460;2023-04-25T02:07:32;3.05;;;2.35;;
78818;SDS011;68166;55.090;37.460;2023-04-25T02:12:35;5.47;;;2.83;;
78818;SDS011;68166;55.090;37.460;2023-04-25T02:17:37;5.80;;;2.80;;
78818;SDS011;68166;55.090;37.460;2023-04-25T02:22:40;5.78;;;2.15;;
78818;SDS011;68166;55.090;37.460;2023-04-25T02:27:43;3.63;;;2.25;;
78818;SDS011;68166;55.090;37.460;2023-04-25T02:32:45;3.15;;;1.73;;
78818;SDS011;68166;55.090;37.460;2023-04-25T02:37:47;5.45;;;2.38;;
78818;SDS011;68166;55.090;37.460;2023-04-25T02:42:48;10.10;;;2.20;;
78818;SDS011;68166;55.090;37.460;2023-04-25T02:47:51;8.32;;;2.47;;
78818;SDS011;68166;55.090;37.460;2023-04-25T02:52:52;6.28;;;2.33;;
78818;SDS011;68166;55.090;37.460;2023-04-25T02:57:54;8.50;;;2.75;;
78818;SDS011;68166;55.090;37.460;2023-04-25T03:02:56;3.63;;;2.20;;
78818;SDS011;68166;55.090;37.460;2023-04-25T03:07:58;2.95;;;1.88;;
78818;SDS011;68166;55.090;37.460;2023-04-25T03:13:00;4.85;;;2.00;;
78818;SDS011;68166;55.090;37.460;2023-04-25T03:18:05;4.30;;;2.30;;
78818;SDS011;68166;55.090;37.460;2023-04-25T03:23:08;3.45;;;2.10;;
78818;SDS011;68166;55.090;37.460;2023-04-25T03:28:10;4.32;;;1.58;;
78818;SDS011;68166;55.090;37.460;2023-04-25T03:33:12;6.78;;;2.75;;
78818;SDS011;68166;55.090;37.460;2023-04-25T03:38:14;5.15;;;2.85;;
78818;SDS011;68166;55.090;37.460;2023-04-25T03:43:16;4.13;;;1.88;;
78818;SDS011;68166;55.090;37.460;2023-04-25T03:48:18;5.90;;;3.47;;
78818;SDS011;68166;55.090;37.460;2023-04-25T03:53:22;5.03;;;2.95;;
78818;SDS011;68166;55.090;37.460;2023-04-25T03:58:24;5.75;;;2.90;;
78818;SDS011;68166;55.090;37.460;2023-04-25T04:03:26;6.65;;;2.33;;
78818;SDS011;68166;55.090;37.460;2023-04-25T04:08:28;5.10;;;2.50;;
78818;SDS011;68166;55.090;37.460;2023-04-25T04:13:30;4.65;;;2.92;;
78818;SDS011;68166;55.090;37.460;2023-04-25T04:18:32;5.03;;;2.38;;
78818;SDS011;68166;55.090;37.460;2023-04-25T04:23:34;7.78;;;2.90;;
78818;SDS011;68166;55.090;37.460;2023-04-25T04:28:37;5.80;;;2.88;;
78818;SDS011;68166;55.090;37.460;2023-04-25T04:33:39;5.90;;;2.75;;
78818;SDS011;68166;55.090;37.460;2023-04-25T04:38:41;5.85;;;2.80;;
78818;SDS011;68166;55.090;37.460;2023-04-25T04:43:43;6.53;;;2.83;;
78818;SDS011;68166;55.090;37.460;2023-04-25T04:48:45;7.07;;;3.47;;
78818;SDS011;68166;55.090;37.460;2023-04-25T04:53:47;3.95;;;2.42;;
78818;SDS011;68166;55.090;37.460;2023-04-25T04:58:49;3.17;;;1.63;;
78818;SDS011;68166;55.090;37.460;2023-04-25T05:03:51;4.72;;;2.38;;
78818;SDS011;68166;55.090;37.460;2023-04-25T05:08:53;5.68;;;2.95;;
78818;SDS011;68166;55.090;37.460;2023-04-25T05:13:56;2.97;;;1.90;;
78818;SDS011;68166;55.090;37.460;2023-04-25T05:18:58;4.20;;;1.92;;
78818;SDS011;68166;55.090;37.460;2023-04-25T05:24:00;3.72;;;2.05;;
78818;SDS011;68166;55.090;37.460;2023-04-25T05:29:02;4.03;;;2.53;;
78818;SDS011;68166;55.090;37.460;2023-04-25T05:34:04;6.35;;;2.20;;
78818;SDS011;68166;55.090;37.460;2023-04-25T05:39:06;5.07;;;2.13;;
78818;SDS011;68166;55.090;37.460;2023-04-25T05:44:09;6.72;;;2.15;;
78818;SDS011;68166;55.090;37.460;2023-04-25T05:49:11;3.30;;;1.92;;
78818;SDS011;68166;55.090;37.460;2023-04-25T05:54:13;3.63;;;1.95;;
78818;SDS011;68166;55.090;37.460;2023-04-25T05:59:15;5.00;;;2.70;;
78818;SDS011;68166;55.090;37.460;2023-04-25T06:04:17;4.93;;;2.78;;
78818;SDS011;68166;55.090;37.460;2023-04-25T06:09:19;4.82;;;2.78;;
78818;SDS011;68166;55.090;37.460;2023-04-25T06:14:21;1.25;;;0.55;;
78818;SDS011;68166;55.090;37.460;2023-04-25T06:19:23;2.47;;;1.50;;
78818;SDS011;68166;55.090;37.460;2023-04-25T06:24:25;2.50;;;1.02;;
78818;SDS011;68166;55.090;37.460;2023-04-25T06:29:27;3.90;;;2.13;;
78818;SDS011;68166;55.090;37.460;2023-04-25T06:34:29;3.15;;;1.33;;
78818;SDS011;68166;55.090;37.460;2023-04-25T06:39:31;5.05;;;1.85;;
78818;SDS011;68166;55.090;37.460;2023-04-25T06:44:35;2.60;;;1.33;;
78818;SDS011;68166;55.090;37.460;2023-04-25T06:49:37;2.92;;;1.20;;
78818;SDS011;68166;55.090;37.460;2023-04-25T06:54:39;1.52;;;0.68;;
78818;SDS011;68166;55.090;37.460;2023-04-25T06:59:41;2.58;;;1.35;;
78818;SDS011;68166;55.090;37.460;2023-04-25T07:04:43;6.25;;;1.30;;
78818;SDS011;68166;55.090;37.460;2023-04-25T07:09:47;3.17;;;1.17;;
78818;SDS011;68166;55.090;37.460;2023-04-25T07:14:48;3.17;;;1.60;;
78818;SDS011;68166;55.090;37.460;2023-04-25T07:19:50;5.20;;;1.55;;
78818;SDS011;68166;55.090;37.460;2023-04-25T07:24:52;1.35;;;0.50;;
78818;SDS011;68166;55.090;37.460;2023-04-25T07:29:55;2.75;;;0.98;;
78818;SDS011;68166;55.090;37.460;2023-04-25T07:34:57;2.85;;;0.75;;
78818;SDS011;68166;55.090;37.460;2023-04-25T07:39:59;4.03;;;2.05;;
78818;SDS011;68166;55.090;37.460;2023-04-25T07:45:01;3.78;;;1.30;;
78818;SDS011;68166;55.090;37.460;2023-04-25T07:50:04;5.22;;;1.42;;
78818;SDS011;68166;55.090;37.460;2023-04-25T07:55:06;1.67;;;0.85;;
78818;SDS011;68166;55.090;37.460;2023-04-25T08:00:09;4.85;;;1.58;;
78818;SDS011;68166;55.090;37.460;2023-04-25T08:05:12;1.42;;;0.75;;
78818;SDS011;68166;55.090;37.460;2023-04-25T08:10:15;2.40;;;1.08;;
78818;SDS011;68166;55.090;37.460;2023-04-25T08:15:17;1.83;;;0.73;;
78818;SDS011;68166;55.090;37.460;2023-04-25T08:20:19;3.10;;;1.55;;
78818;SDS011;68166;55.090;37.460;2023-04-25T08:25:22;3.25;;;1.42;;
78818;SDS011;68166;55.090;37.460;2023-04-25T08:30:23;6.43;;;1.90;;
78818;SDS011;68166;55.090;37.460;2023-04-25T08:35:26;4.57;;;1.38;;
78818;SDS011;68166;55.090;37.460;2023-04-25T08:40:28;4.05;;;1.20;;
78818;SDS011;68166;55.090;37.460;2023-04-25T08:45:31;4.53;;;1.95;;
78818;SDS011;68166;55.090;37.460;2023-04-25T08:50:40;2.55;;;1.50;;
78818;SDS011;68166;55.090;37.460;2023-04-25T08:55:46;3.80;;;1.60;;
78818;SDS011;68166;55.090;37.460;2023-04-25T09:00:49;3.92;;;1.88;;
78818;SDS011;68166;55.090;37.460;2023-04-25T09:05:51;5.72;;;1.80;;
78818;SDS011;68166;55.090;37.460;2023-04-25T09:10:53;3.58;;;1.70;;
78818;SDS011;68166;55.090;37.460;2023-04-25T09:15:56;3.53;;;1.20;;
78818;SDS011;68166;55.090;37.460;2023-04-25T09:21:04;2.45;;;1.17;;
78818;SDS011;68166;55.090;37.460;2023-04-25T09:26:10;3.75;;;1.30;;
78818;SDS011;68166;55.090;37.460;2023-04-25T09:31:22;3.45;;;1.50;;
78818;SDS011;68166;55.090;37.460;2023-04-25T09:36:27;2.30;;;1.27;;
78818;SDS011;68166;55.090;37.460;2023-04-25T09:41:30;4.10;;;1.60;;
78818;SDS011;68166;55.090;37.460;2023-04-25T09:46:34;2.58;;;1.30;;
78818;SDS011;68166;55.090;37.460;2023-04-25T09:51:37;1.88;;;0.82;;
78818;SDS011;68166;55.090;37.460;2023-04-25T09:56:39;3.85;;;1.52;;
78818;SDS011;68166;55.090;37.460;2023-04-25T10:01:41;2.03;;;1.20;;
78818;SDS011;68166;55.090;37.460;2023-04-25T10:06:44;2.42;;;1.10;;
78818;SDS011;68166;55.090;37.460;2023-04-25T10:11:47;5.28;;;1.20;;
78818;SDS011;68166;55.090;37.460;2023-04-25T10:16:49;1.98;;;0.88;;
78818;SDS011;68166;55.090;37.460;2023-04-25T10:27:18;2.95;;;1.20;;
78818;SDS011;68166;55.090;37.460;2023-04-25T10:32:20;5.03;;;2.08;;
78818;SDS011;68166;55.090;37.460;2023-04-25T10:37:22;3.33;;;1.30;;
78818;SDS011;68166;55.090;37.460;2023-04-25T10:42:26;2.85;;;1.45;;
78818;SDS011;68166;55.090;37.460;2023-04-25T10:47:34;2.50;;;0.95;;
78818;SDS011;68166;55.090;37.460;2023-04-25T10:52:40;2.15;;;1.38;;
78818;SDS011;68166;55.090;37.460;2023-04-25T10:57:42;8.27;;;2.15;;
78818;SDS011;68166;55.090;37.460;2023-04-25T11:02:48;3.70;;;1.63;;
78818;SDS011;68166;55.090;37.460;2023-04-25T11:07:53;3.58;;;1.50;;
78818;SDS011;68166;55.090;37.460;2023-04-25T11:12:58;8.68;;;2.30;;
78818;SDS011;68166;55.090;37.460;2023-04-25T11:18:01;3.22;;;1.30;;
78818;SDS011;68166;55.090;37.460;2023-04-25T11:23:03;1.88;;;1.10;;
78818;SDS011;68166;55.090;37.460;2023-04-25T11:28:06;2.53;;;1.65;;
78818;SDS011;68166;55.090;37.460;2023-04-25T11:33:09;3.45;;;1.70;;
78818;SDS011;68166;55.090;37.460;2023-04-25T11:38:11;2.50;;;1.50;;
78818;SDS011;68166;55.090;37.460;2023-04-25T11:43:13;2.67;;;1.42;;
78818;SDS011;68166;55.090;37.460;2023-04-25T11:48:15;3.47;;;1.48;;
78818;SDS011;68166;55.090;37.460;2023-04-25T11:53:17;4.55;;;1.73;;
78818;SDS011;68166;55.090;37.460;2023-04-25T11:58:19;6.43;;;2.00;;
78818;SDS011;68166;55.090;37.460;2023-04-25T12:03:21;2.90;;;1.80;;
78818;SDS011;68166;55.090;37.460;2023-04-25T12:08:27;4.20;;;2.15;;
78818;SDS011;68166;55.090;37.460;2023-04-25T12:13:32;3.55;;;2.00;;
78818;SDS011;68166;55.090;37.460;2023-04-25T12:18:35;2.53;;;1.30;;
78818;SDS011;68166;55.090;37.460;2023-04-25T12:23:38;3.83;;;1.80;;
78818;SDS011;68166;55.090;37.460;2023-04-25T12:28:44;3.88;;;1.83;;
78818;SDS011;68166;55.090;37.460;2023-04-25T12:33:48;3.33;;;1.25;;
78818;SDS011;68166;55.090;37.460;2023-04-25T12:38:52;4.25;;;2.17;;
78818;SDS011;68166;55.090;37.460;2023-04-25T12:43:54;3.65;;;1.90;;
78818;SDS011;68166;55.090;37.460;2023-04-25T12:48:56;4.68;;;2.00;;
78818;SDS011;68166;55.090;37.460;2023-04-25T12:53:58;4.25;;;1.88;;
78818;SDS011;68166;55.090;37.460;2023-04-25T12:59:01;3.22;;;1.80;;
78818;SDS011;68166;55.090;37.460;2023-04-25T13:04:06;6.32;;;2.20;;
78818;SDS011;68166;55.090;37.460;2023-04-25T13:09:08;3.55;;;2.38;;
78818;SDS011;68166;55.090;37.460;2023-04-25T13:14:11;3.90;;;1.90;;
78818;SDS011;68166;55.090;37.460;2023-04-25T13:19:13;4.55;;;1.80;;
78818;SDS011;68166;55.090;37.460;2023-04-25T13:24:15;3.90;;;2.35;;
78818;SDS011;68166;55.090;37.460;2023-04-25T13:29:17;5.95;;;2.85;;
78818;SDS011;68166;55.090;37.460;2023-04-25T13:34:19;8.45;;;3.00;;
78818;SDS011;68166;55.090;37.460;2023-04-25T13:39:21;5.20;;;2.28;;
78818;SDS011;68166;55.090;37.460;2023-04-25T13:44:23;4.43;;;2.65;;
78818;SDS011;68166;55.090;37.460;2023-04-25T13:49:25;5.28;;;2.50;;
78818;SDS011;68166;55.090;37.460;2023-04-25T13:54:27;6.53;;;2.30;;
78818;SDS011;68166;55.090;37.460;2023-04-25T13:59:29;3.67;;;2.60;;
78818;SDS011;68166;55.090;37.460;2023-04-25T14:04:31;6.43;;;3.33;;
78818;SDS011;68166;55.090;37.460;2023-04-25T14:14:37;8.82;;;3.10;;
78818;SDS011;68166;55.090;37.460;2023-04-25T14:19:39;9.15;;;3.45;;
78818;SDS011;68166;55.090;37.460;2023-04-25T14:24:44;4.97;;;2.72;;
78818;SDS011;68166;55.090;37.460;2023-04-25T14:29:46;27.08;;;10.70;;
78818;SDS011;68166;55.090;37.460;2023-04-25T14:34:48;4.40;;;1.73;;
78818;SDS011;68166;55.090;37.460;2023-04-25T14:39:50;8.43;;;2.10;;
78818;SDS011;68166;55.090;37.460;2023-04-25T14:44:52;7.85;;;2.83;;
78818;SDS011;68166;55.090;37.460;2023-04-25T14:49:56;6.28;;;3.30;;
78818;SDS011;68166;55.090;37.460;2023-04-25T14:54:58;11.02;;;3.83;;
78818;SDS011;68166;55.090;37.460;2023-04-25T15:00:06;6.45;;;3.10;;
78818;SDS011;68166;55.090;37.460;2023-04-25T15:05:10;7.43;;;3.90;;
78818;SDS011;68166;55.090;37.460;2023-04-25T15:10:12;8.50;;;3.88;;
78818;SDS011;68166;55.090;37.460;2023-04-25T15:15:16;7.85;;;3.67;;
78818;SDS011;68166;55.090;37.460;2023-04-25T15:20:18;5.93;;;3.47;;
78818;SDS011;68166;55.090;37.460;2023-04-25T15:25:20;7.10;;;3.05;;
78818;SDS011;68166;55.090;37.460;2023-04-25T15:30:23;4.93;;;2.42;;
78818;SDS011;68166;55.090;37.460;2023-04-25T15:35:25;4.60;;;2.33;;
78818;SDS011;68166;55.090;37.460;2023-04-25T15:40:27;4.35;;;2.58;;
78818;SDS011;68166;55.090;37.460;2023-04-25T15:45:29;8.27;;;2.90;;
78818;SDS011;68166;55.090;37.460;2023-04-25T15:50:32;12.15;;;6.90;;
78818;SDS011;68166;55.090;37.460;2023-04-25T15:55:36;8.68;;;4.38;;
78818;SDS011;68166;55.090;37.460;2023-04-25T16:00:38;5.80;;;3.53;;
78818;SDS011;68166;55.090;37.460;2023-04-25T16:05:40;4.50;;;2.40;;
78818;SDS011;68166;55.090;37.460;2023-04-25T16:10:42;3.15;;;1.83;;
78818;SDS011;68166;55.090;37.460;2023-04-25T16:15:44;3.40;;;2.08;;
78818;SDS011;68166;55.090;37.460;2023-04-25T16:20:46;4.00;;;1.60;;
78818;SDS011;68166;55.090;37.460;2023-04-25T16:25:48;5.05;;;1.80;;
78818;SDS011;68166;55.090;37.460;2023-04-25T16:30:50;6.03;;;2.60;;
78818;SDS011;68166;55.090;37.460;2023-04-25T16:36:00;1.70;;;0.70;;
78818;SDS011;68166;55.090;37.460;2023-04-25T16:41:02;3.28;;;2.25;;
78818;SDS011;68166;55.090;37.460;2023-04-25T16:46:04;3.20;;;1.58;;
78818;SDS011;68166;55.090;37.460;2023-04-25T16:51:06;2.78;;;1.80;;
78818;SDS011;68166;55.090;37.460;2023-04-25T16:56:08;4.20;;;1.90;;
78818;SDS011;68166;55.090;37.460;2023-04-25T17:01:10;4.53;;;1.48;;
78818;SDS011;68166;55.090;37.460;2023-04-25T17:06:15;5.25;;;1.50;;
78818;SDS011;68166;55.090;37.460;2023-04-25T17:11:18;2.80;;;1.65;;
78818;SDS011;68166;55.090;37.460;2023-04-25T17:16:20;3.30;;;1.77;;
78818;SDS011;68166;55.090;37.460;2023-04-25T17:21:25;4.90;;;2.15;;
78818;SDS011;68166;55.090;37.460;2023-04-25T17:26:27;5.30;;;2.70;;
78818;SDS011;68166;55.090;37.460;2023-04-25T17:31:29;5.70;;;2.17;;
78818;SDS011;68166;55.090;37.460;2023-04-25T17:36:31;3.50;;;1.75;;
78818;SDS011;68166;55.090;37.460;2023-04-25T17:41:33;2.67;;;1.15;;
78818;SDS011;68166;55.090;37.460;2023-04-25T17:46:35;4.75;;;2.03;;
78818;SDS011;68166;55.090;37.460;2023-04-25T17:51:37;5.45;;;2.72;;
78818;SDS011;68166;55.090;37.460;2023-04-25T17:56:45;4.72;;;2.33;;
78818;SDS011;68166;55.090;37.460;2023-04-25T18:01:47;5.05;;;2.42;;
78818;SDS011;68166;55.090;37.460;2023-04-25T18:06:49;3.05;;;2.15;;
78818;SDS011;68166;55.090;37.460;2023-04-25T18:11:51;5.75;;;2.95;;
78818;SDS011;68166;55.090;37.460;2023-04-25T18:16:56;5.10;;;2.88;;
78818;SDS011;68166;55.090;37.460;2023-04-25T18:21:58;8.73;;;2.85;;
78818;SDS011;68166;55.090;37.460;2023-04-25T18:27:00;6.60;;;2.58;;
78818;SDS011;68166;55.090;37.460;2023-04-25T18:32:02;4.15;;;2.97;;
78818;SDS011;68166;55.090;37.460;2023-04-25T18:37:04;5.68;;;2.80;;
78818;SDS011;68166;55.090;37.460;2023-04-25T18:42:06;7.78;;;2.55;;
78818;SDS011;68166;55.090;37.460;2023-04-25T18:47:08;5.97;;;2.78;;
78818;SDS011;68166;55.090;37.460;2023-04-25T18:52:11;4.03;;;2.67;;
78818;SDS011;68166;55.090;37.460;2023-04-25T18:57:15;4.13;;;1.85;;
78818;SDS011;68166;55.090;37.460;2023-04-25T19:02:24;5.63;;;3.13;;
78818;SDS011;68166;55.090;37.460;2023-04-25T19:07:26;7.38;;;2.22;;
78818;SDS011;68166;55.090;37.460;2023-04-25T19:12:30;3.92;;;2.13;;
78818;SDS011;68166;55.090;37.460;2023-04-25T19:17:33;5.30;;;2.53;;
78818;SDS011;68166;55.090;37.460;2023-04-25T19:22:35;4.68;;;2.30;;
78818;SDS011;68166;55.090;37.460;2023-04-25T19:27:37;3.58;;;2.30;;
78818;SDS011;68166;55.090;37.460;2023-04-25T19:32:39;6.20;;;2.10;;
78818;SDS011;68166;55.090;37.460;2023-04-25T19:37:41;5.15;;;2.80;;
78818;SDS011;68166;55.090;37.460;2023-04-25T19:42:46;8.38;;;3.17;;
78818;SDS011;68166;55.090;37.460;2023-04-25T19:47:48;6.32;;;3.08;;
78818;SDS011;68166;55.090;37.460;2023-04-25T19:52:50;8.40;;;3.55;;
78818;SDS011;68166;55.090;37.460;2023-04-25T19:57:52;5.93;;;3.20;;
78818;SDS011;68166;55.090;37.460;2023-04-25T20:02:54;5.28;;;3.05;;
78818;SDS011;68166;55.090;37.460;2023-04-25T20:07:56;7.03;;;3.35;;
78818;SDS011;68166;55.090;37.460;2023-04-25T20:12:58;6.68;;;3.45;;
78818;SDS011;68166;55.090;37.460;2023-04-25T20:18:01;4.32;;;2.35;;
78818;SDS011;68166;55.090;37.460;2023-04-25T20:23:03;5.68;;;3.80;;
78818;SDS011;68166;55.090;37.460;2023-04-25T20:28:07;7.55;;;3.85;;
78818;SDS011;68166;55.090;37.460;2023-04-25T20:33:09;7.82;;;3.22;;
78818;SDS011;68166;55.090;37.460;2023-04-25T20:38:11;7.63;;;4.40;;
78818;SDS011;68166;55.090;37.460;2023-04-25T20:43:13;8.60;;;4.05;;
78818;SDS011;68166;55.090;37.460;2023-04-25T20:48:19;7.90;;;3.92;;
78818;SDS011;68166;55.090;37.460;2023-04-25T20:53:22;8.57;;;3.97;;
78818;SDS011;68166;55.090;37.460;2023-04-25T20:58:24;6.93;;;4.18;;
78818;SDS011;68166;55.090;37.460;2023-04-25T21:03:26;9.15;;;4.45;;
78818;SDS011;68166;55.090;37.460;2023-04-25T21:08:30;6.25;;;3.85;;
78818;SDS011;68166;55.090;37.460;2023-04-25T21:13:32;10.00;;;4.63;;
78818;SDS011;68166;55.090;37.460;2023-04-25T21:18:33;8.50;;;3.75;;
78818;SDS011;68166;55.090;37.460;2023-04-25T21:23:36;6.57;;;3.65;;
78818;SDS011;68166;55.090;37.460;2023-04-25T21:28:37;7.47;;;4.65;;
78818;SDS011;68166;55.090;37.460;2023-04-25T21:33:40;7.57;;;3.72;;
78818;SDS011;68166;55.090;37.460;2023-04-25T21:38:42;6.50;;;3.53;;
78818;SDS011;68166;55.090;37.460;2023-04-25T21:43:44;10.52;;;4.63;;
78818;SDS011;68166;55.090;37.460;2023-04-25T21:48:46;5.85;;;3.10;;
78818;SDS011;68166;55.090;37.460;2023-04-25T21:53:49;5.15;;;2.75;;
78818;SDS011;68166;55.090;37.460;2023-04-25T21:58:51;10.45;;;4.35;;
78818;SDS011;68166;55.090;37.460;2023-04-25T22:03:53;7.90;;;3.65;;
78818;SDS011;68166;55.090;37.460;2023-04-25T22:08:55;10.02;;;3.15;;
78818;SDS011;68166;55.090;37.460;2023-04-25T22:13:57;6.25;;;3.25;;
78818;SDS011;68166;55.090;37.460;2023-04-25T22:18:59;6.38;;;3.78;;
78818;SDS011;68166;55.090;37.460;2023-04-25T22:24:01;8.45;;;3.92;;
78818;SDS011;68166;55.090;37.460;2023-04-25T22:29:05;6.47;;;3.40;;
78818;SDS011;68166;55.090;37.460;2023-04-25T22:34:07;7.82;;;3.47;;
78818;SDS011;68166;55.090;37.460;2023-04-25T22:39:16;6.35;;;2.95;;
78818;SDS011;68166;55.090;37.460;2023-04-25T22:44:19;6.30;;;3.45;;
78818;SDS011;68166;55.090;37.460;2023-04-25T22:49:22;7.07;;;3.40;;
78818;SDS011;68166;55.090;37.460;2023-04-25T22:54:24;7.63;;;5.13;;
78818;SDS011;68166;55.090;37.460;2023-04-25T22:59:27;6.50;;;3.42;;
78818;SDS011;68166;55.090;37.460;2023-04-25T23:04:29;5.30;;;3.10;;
78818;SDS011;68166;55.090;37.460;2023-04-25T23:09:31;7.45;;;3.95;;
78818;SDS011;68166;55.090;37.460;2023-04-25T23:14:34;6.57;;;3.92;;
78818;SDS011;68166;55.090;37.460;2023-04-25T23:19:36;7.85;;;3.55;;
78818;SDS011;68166;55.090;37.460;2023-04-25T23:24:38;8.13;;;3.38;;
78818;SDS011;68166;55.090;37.460;2023-04-25T23:29:41;6.43;;;4.25;;
78818;SDS011;68166;55.090;37.460;2023-04-25T23:34:43;5.68;;;4.07;;
78818;SDS011;68166;55.090;37.460;2023-04-25T23:39:48;5.05;;;3.33;;
78818;SDS011;68166;55.090;37.460;2023-04-25T23:44:52;8.98;;;4.57;;
78818;SDS011;68166;55.090;37.460;2023-04-25T23:49:54;7.25;;;3.83;;
78818;SDS011;68166;55.090;37.460;2023-04-25T23:54:56;6.35;;;3.50;;
78818;SDS011;68166;55.090;37.460;2023-04-25T23:59:58;8.55;;;3.10;;
